AKST,Max TemperatureF,Mean TemperatureF,Min TemperatureF,Max Dew PointF,MeanDew PointF,Min DewpointF,Max Humidity, Mean Humidity, Min Humidity, Max Sea Level PressureIn, Mean Sea Level PressureIn, Min Sea Level PressureIn, Max VisibilityMiles, Mean VisibilityMiles, Min VisibilityMiles, Max Wind SpeedMPH, Mean Wind SpeedMPH, Max Gust SpeedMPH,PrecipitationIn, CloudCover, Events, WindDirDegrees
2010-11-1,46,38,33,39,34,27,100,84,53,29.31,29.11,29.01,10,9,3,16,4,21,0.72,8,Rain,56
2010-11-2,46,42,37,40,38,35,93,75,63,30.30,29.83,29.32,10,10,7,38,25,51,0.07,7,Rain,207
2010-11-3,48,42,39,38,36,31,96,84,56,30.27,29.84,29.44,10,7,4,12,5,23,1.02,7,Rain,13
2010-11-4,44,42,39,42,39,36,100,88,73,29.45,29.34,29.19,10,8,3,30,9,41,0.60,8,Rain,187
2010-11-5,42,40,37,37,35,33,100,82,70,29.61,29.56,29.41,10,10,10,31,17,39,0.02,7,Rain,207
2010-11-6,44,40,35,37,34,32,100,85,63,29.56,29.45,29.37,10,10,10,6,2,,0.00,8,,42
2010-11-7,45,40,37,38,36,34,97,89,68,29.68,29.54,29.41,10,10,7,5,2,,0.01,8,Rain,39
2010-11-8,42,38,35,37,34,31,100,84,67,29.81,29.76,29.70,10,10,10,10,4,18,0.05,8,Rain,108
2010-11-9,35,32,28,32,30,27,100,90,76,30.00,29.92,29.82,10,8,2,5,1,,0.06,7,Snow,32
2010-11-10,36,34,33,36,34,32,100,96,93,30.09,30.04,29.93,10,7,2,6,1,,0.11,8,Rain-Snow,280
2010-11-11,43,38,34,38,35,32,97,89,76,29.91,29.73,29.66,10,10,8,30,2,39,0.12,8,Rain,158
2010-11-12,44,40,37,41,38,35,97,89,80,29.74,29.71,29.64,10,9,4,31,15,41,0.57,8,Rain,102
2010-11-13,48,44,39,41,38,34,93,77,63,29.87,29.78,29.65,10,10,10,36,15,46,0.03,6,Rain,207
2010-11-14,43,40,36,38,36,34,100,90,74,30.12,29.93,29.79,10,10,10,21,3,25,0.00,7,Rain,198
2010-11-15,39,34,30,36,29,23,100,80,55,30.12,30.05,29.99,10,10,8,14,2,21,0.05,4,Rain,37
2010-11-16,36,32,28,23,15,9,59,49,43,30.41,30.21,30.05,10,10,10,16,10,30,0.00,8,,19
2010-11-17,28,26,23,9,4,0,45,39,34,30.58,30.51,30.42,10,10,10,25,17,44,0.00,5,,26
2010-11-18,35,27,19,21,9,-2,64,48,34,30.55,30.38,30.30,10,10,8,25,7,31,0.00,4,,19
2010-11-19,36,30,24,20,13,8,64,46,34,30.56,30.49,30.34,10,10,8,20,5,31,0.00,3,,34
2010-11-20,37,26,21,21,15,12,75,63,47,30.48,30.32,30.21,10,10,8,9,1,18,0.00,5,,30
2010-11-21,39,36,33,24,22,14,64,55,46,30.36,30.21,30.16,10,10,10,16,6,31,0.00,8,,23
2010-11-22,32,26,21,20,7,1,69,47,38,30.51,30.41,30.25,10,10,10,25,17,33,0.00,5,,50
2010-11-23,30,29,28,25,22,20,82,73,69,30.23,30.08,29.96,10,10,4,22,11,28,0.00,5,Snow,202
2010-11-24,41,36,30,37,31,25,96,86,75,29.96,29.68,29.49,10,8,3,31,10,41,0.06,8,Rain-Snow,187
2010-11-25,42,36,30,35,33,27,96,83,73,29.49,29.44,29.40,10,10,10,31,16,40,0.00,6,Rain,191
2010-11-26,39,34,27,24,22,19,81,61,47,29.83,29.63,29.41,10,10,10,13,4,21,0.00,3,,20
2010-11-27,28,24,21,23,20,18,88,81,69,29.91,29.88,29.84,10,10,7,5,1,,0.00,4,,35
2010-11-28,32,30,28,31,28,24,100,94,85,29.90,29.81,29.71,10,3,1,6,1,,0.37,8,Snow,25
2010-11-29,36,33,30,32,29,16,100,85,54,29.70,29.44,29.27,10,5,1,15,3,22,0.16,8,Rain-Snow,16
2010-11-30,28,24,19,15,8,3,58,50,44,29.96,29.68,29.37,10,10,10,14,10,24,0.00,7,,13